createdAt,value
2023-01-26T00:01:13.696Z,7.30
2023-01-26T00:03:51.459Z,7.30
2023-01-26T00:06:28.330Z,7.30
2023-01-26T00:09:04.763Z,7.30
2023-01-26T00:11:41.689Z,7.30
2023-01-26T00:14:19.186Z,7.30
2023-01-26T00:16:56.193Z,7.30
2023-01-26T00:19:33.473Z,7.30
2023-01-26T00:22:10.814Z,7.30
2023-01-26T00:24:47.464Z,7.34
2023-01-26T00:27:24.471Z,7.30
2023-01-26T00:30:01.314Z,7.34
2023-01-26T00:32:39.584Z,7.32
2023-01-26T00:35:17.423Z,7.30
2023-01-26T00:37:54.975Z,7.34
2023-01-26T00:40:31.422Z,7.40
2023-01-26T00:43:07.519Z,7.40
2023-01-26T00:45:44.225Z,7.30
2023-01-26T00:48:20.075Z,7.30
2023-01-26T00:50:57.956Z,7.30
2023-01-26T00:53:34.313Z,7.20
2023-01-26T00:56:15.237Z,7.20
2023-01-26T00:58:53.023Z,7.14
2023-01-26T01:01:29.238Z,7.10
2023-01-26T01:04:06.018Z,7.10
2023-01-26T01:06:44.008Z,7.10
2023-01-26T01:09:20.900Z,7.02
2023-01-26T01:11:59.245Z,7.00
2023-01-26T01:14:37.301Z,7.00
2023-01-26T01:17:14.127Z,6.96
2023-01-26T01:19:51.354Z,6.90
2023-01-26T01:22:35.289Z,6.90
2023-01-26T01:25:14.794Z,6.90
2023-01-26T01:27:55.066Z,6.88
2023-01-26T01:30:32.105Z,6.84
2023-01-26T01:33:08.896Z,6.80
2023-01-26T01:35:45.864Z,6.80
2023-01-26T01:38:22.852Z,6.80
2023-01-26T01:41:00.114Z,6.80
2023-01-26T01:43:37.276Z,6.80
2023-01-26T01:46:24.119Z,6.80
2023-01-26T01:49:04.707Z,6.80
2023-01-26T01:51:47.489Z,6.80
2023-01-26T01:54:30.473Z,6.80
2023-01-26T01:57:18.107Z,6.80
2023-01-26T02:00:02.555Z,6.80
2023-01-26T02:03:11.113Z,6.80
2023-01-26T02:06:01.008Z,6.80
2023-01-26T02:08:43.203Z,6.74
2023-01-26T02:11:23.186Z,6.70
2023-01-26T02:14:01.884Z,6.70
2023-01-26T02:16:39.974Z,6.70
2023-01-26T02:19:30.012Z,6.70
2023-01-26T02:22:21.537Z,6.70
2023-01-26T02:25:03.200Z,6.70
2023-01-26T02:27:43.223Z,6.70
2023-01-26T02:30:25.486Z,6.68
2023-01-26T02:33:04.020Z,6.62
2023-01-26T02:35:42.588Z,6.60
2023-01-26T02:38:19.241Z,6.68
2023-01-26T02:41:01.746Z,6.64
2023-01-26T02:43:38.628Z,6.62
2023-01-26T02:46:15.995Z,6.60
2023-01-26T02:49:11.928Z,6.60
2023-01-26T02:51:48.513Z,6.60
2023-01-26T02:54:41.707Z,6.60
2023-01-26T02:57:18.779Z,6.60
2023-01-26T02:59:55.025Z,6.60
2023-01-26T03:02:31.265Z,6.60
2023-01-26T03:05:09.064Z,6.60
2023-01-26T03:07:46.102Z,6.60
2023-01-26T03:10:27.398Z,6.54
2023-01-26T03:13:04.236Z,6.50
2023-01-26T03:15:52.956Z,6.52
2023-01-26T03:18:47.570Z,6.50
2023-01-26T03:21:41.312Z,6.50
2023-01-26T03:24:36.538Z,6.50
2023-01-26T03:27:31.181Z,6.50
2023-01-26T03:30:17.749Z,6.52
2023-01-26T03:32:54.947Z,6.50
2023-01-26T03:35:31.022Z,6.50
2023-01-26T03:38:07.485Z,6.50
2023-01-26T03:41:08.195Z,6.50
2023-01-26T03:44:02.102Z,6.50
2023-01-26T03:46:55.942Z,6.50
2023-01-26T03:49:48.606Z,6.50
2023-01-26T03:52:42.566Z,6.50
2023-01-26T03:55:37.013Z,6.50
2023-01-26T03:58:13.336Z,6.56
2023-01-26T04:00:50.938Z,6.56
2023-01-26T04:03:44.295Z,6.50
2023-01-26T04:06:37.814Z,6.50
2023-01-26T04:09:15.415Z,6.50
2023-01-26T04:11:53.193Z,6.50
2023-01-26T04:14:49.853Z,6.50
2023-01-26T04:17:47.669Z,6.50
2023-01-26T04:20:42.254Z,6.44
2023-01-26T04:23:26.819Z,6.40
2023-01-26T04:26:03.316Z,6.40
2023-01-26T04:28:39.976Z,6.40
2023-01-26T04:31:18.475Z,6.36
2023-01-26T04:34:00.904Z,6.30
2023-01-26T04:36:38.390Z,6.38
2023-01-26T04:39:15.591Z,6.36
2023-01-26T04:41:56.417Z,6.30
2023-01-26T04:44:33.942Z,6.30
2023-01-26T04:47:10.755Z,6.30
2023-01-26T04:49:47.179Z,6.30
2023-01-26T04:52:28.709Z,6.30
2023-01-26T04:55:05.610Z,6.30
2023-01-26T04:57:43.435Z,6.30
2023-01-26T05:00:26.365Z,6.28
2023-01-26T05:03:03.650Z,6.20
2023-01-26T05:05:43.857Z,6.20
2023-01-26T05:08:21.862Z,6.20
2023-01-26T05:10:58.485Z,6.20
2023-01-26T05:13:53.413Z,6.20
2023-01-26T05:16:46.793Z,6.20
2023-01-26T05:19:42.021Z,6.20
2023-01-26T05:22:46.108Z,6.20
2023-01-26T05:25:41.463Z,6.22
2023-01-26T05:28:21.553Z,6.30
2023-01-26T05:30:58.601Z,6.30
2023-01-26T05:33:35.148Z,6.30
2023-01-26T05:36:15.039Z,6.40
2023-01-26T05:38:51.244Z,6.40
2023-01-26T05:41:31.287Z,6.40
2023-01-26T05:44:33.258Z,6.40
2023-01-26T05:47:20.572Z,6.40
2023-01-26T05:49:59.259Z,6.48
2023-01-26T05:52:38.920Z,6.50
2023-01-26T05:55:18.563Z,6.50
2023-01-26T05:57:55.394Z,6.50
2023-01-26T06:00:33.678Z,6.52
2023-01-26T06:03:15.302Z,6.60
2023-01-26T06:05:58.887Z,6.60
2023-01-26T06:08:43.133Z,6.60
2023-01-26T06:11:38.305Z,6.70
2023-01-26T06:14:19.122Z,6.70
2023-01-26T06:16:56.931Z,6.74
2023-01-26T06:19:33.761Z,6.80
2023-01-26T06:22:12.571Z,6.80
2023-01-26T06:24:52.506Z,6.88
2023-01-26T06:27:29.918Z,6.90
2023-01-26T06:30:09.652Z,6.90
2023-01-26T06:32:48.595Z,6.90
2023-01-26T06:35:26.942Z,6.90
2023-01-26T06:38:06.679Z,6.90
2023-01-26T06:40:44.027Z,6.90
2023-01-26T06:43:20.481Z,7.00
2023-01-26T06:45:58.271Z,7.00
2023-01-26T06:48:37.252Z,7.00
2023-01-26T06:51:48.715Z,7.00
2023-01-26T06:54:26.228Z,7.00
2023-01-26T06:57:13.289Z,7.00
2023-01-26T06:59:56.342Z,7.00
2023-01-26T07:02:42.705Z,7.00
2023-01-26T07:05:26.784Z,7.00
2023-01-26T07:08:04.591Z,7.10
2023-01-26T07:10:41.356Z,7.10
2023-01-26T07:13:18.491Z,7.10
2023-01-26T07:15:55.835Z,7.10
2023-01-26T07:18:31.697Z,7.10
2023-01-26T07:21:11.638Z,7.10
2023-01-26T07:23:47.794Z,7.10
2023-01-26T07:26:24.493Z,7.14
2023-01-26T07:29:01.613Z,7.10
2023-01-26T07:31:38.372Z,7.16
2023-01-26T07:34:20.134Z,7.12
2023-01-26T07:37:00.269Z,7.20
2023-01-26T07:39:36.819Z,7.20
2023-01-26T07:42:14.032Z,7.20
2023-01-26T07:44:57.241Z,7.20
2023-01-26T07:47:33.928Z,7.20
2023-01-26T07:50:15.964Z,7.30
2023-01-26T07:52:52.587Z,7.24
2023-01-26T07:55:29.745Z,7.20
2023-01-26T07:58:06.359Z,7.20
2023-01-26T08:00:43.949Z,7.30
2023-01-26T08:03:20.872Z,7.30
2023-01-26T08:06:00.461Z,7.30
2023-01-26T08:08:37.176Z,7.34
2023-01-26T08:11:15.728Z,7.40
2023-01-26T08:13:52.842Z,7.40
2023-01-26T08:16:30.128Z,7.40
2023-01-26T08:19:06.659Z,7.40
2023-01-26T08:21:43.236Z,7.40
2023-01-26T08:24:21.159Z,7.40
2023-01-26T08:26:58.110Z,7.40
2023-01-26T08:29:35.247Z,7.40
2023-01-26T08:32:11.687Z,7.40
2023-01-26T08:34:48.511Z,7.46
2023-01-26T08:37:25.536Z,7.50
2023-01-26T08:40:02.593Z,7.50
2023-01-26T08:42:39.684Z,7.56
2023-01-26T08:45:19.461Z,7.58
2023-01-26T08:47:59.686Z,7.60
2023-01-26T08:50:35.449Z,7.60
2023-01-26T08:53:12.511Z,7.70
2023-01-26T08:55:49.069Z,7.70
2023-01-26T08:58:25.652Z,7.72
2023-01-26T09:01:02.757Z,7.70
2023-01-26T09:03:40.082Z,7.70
2023-01-26T09:06:18.354Z,7.70
2023-01-26T09:08:55.180Z,7.76
2023-01-26T09:11:32.169Z,7.72
2023-01-26T09:14:08.832Z,7.80
2023-01-26T09:16:46.223Z,7.88
2023-01-26T09:19:23.746Z,7.90
2023-01-26T09:22:01.571Z,7.92
2023-01-26T09:24:38.726Z,8.00
2023-01-26T09:27:16.282Z,8.10
2023-01-26T09:29:52.513Z,8.20
2023-01-26T09:32:30.009Z,8.30
2023-01-26T09:35:05.931Z,8.30
2023-01-26T09:37:43.336Z,8.40
2023-01-26T09:40:28.378Z,8.40
2023-01-26T09:43:24.682Z,8.50
2023-01-26T09:46:17.386Z,8.50
2023-01-26T09:49:07.537Z,8.50
2023-01-26T09:51:49.180Z,8.60
2023-01-26T09:54:37.624Z,8.70
2023-01-26T09:57:21.765Z,8.70
2023-01-26T10:00:04.027Z,8.80
2023-01-26T10:02:58.675Z,8.84
2023-01-26T10:05:47.821Z,8.90
2023-01-26T10:08:46.306Z,8.90
2023-01-26T10:11:29.651Z,8.90
2023-01-26T10:14:15.978Z,8.90
2023-01-26T10:16:55.985Z,8.88
2023-01-26T10:19:41.420Z,8.90
2023-01-26T10:22:28.535Z,8.90
2023-01-26T10:25:05.653Z,8.90
2023-01-26T10:27:42.839Z,9.00
2023-01-26T10:33:32.218Z,9.28
2023-01-26T10:36:15.740Z,9.30
2023-01-26T10:39:09.947Z,9.30
2023-01-26T10:41:58.503Z,9.40
2023-01-26T10:44:41.696Z,9.50
2023-01-26T10:47:24.802Z,9.60
2023-01-26T10:50:28.627Z,9.60
2023-01-26T10:53:16.639Z,9.50
2023-01-26T10:56:07.419Z,9.40
2023-01-26T10:58:55.424Z,9.40
2023-01-26T11:01:32.573Z,9.40
2023-01-26T11:04:16.451Z,9.40
2023-01-26T11:06:54.633Z,9.40
2023-01-26T11:09:33.702Z,9.50
2023-01-26T11:12:22.153Z,9.60
2023-01-26T11:15:22.843Z,9.76
2023-01-26T11:18:08.947Z,9.90
2023-01-26T11:21:08.619Z,9.90
2023-01-26T11:24:14.316Z,9.90
2023-01-26T11:27:30.338Z,10.00
2023-01-26T11:30:34.981Z,10.06
2023-01-26T11:33:28.708Z,10.10
2023-01-26T11:36:24.411Z,10.20
2023-01-26T11:39:15.234Z,10.30
2023-01-26T11:42:09.113Z,10.40
2023-01-26T11:45:11.037Z,10.40
2023-01-26T11:48:16.090Z,10.50
2023-01-26T11:51:05.675Z,10.60
2023-01-26T11:54:06.576Z,10.56
2023-01-26T11:56:58.934Z,10.60
2023-01-26T11:59:42.798Z,10.60
2023-01-26T12:02:34.581Z,10.56
2023-01-26T12:05:24.878Z,10.60
2023-01-26T12:08:06.671Z,10.60
2023-01-26T12:10:53.775Z,10.70
2023-01-26T12:13:46.668Z,10.70
2023-01-26T12:16:31.931Z,10.66
2023-01-26T12:19:22.831Z,10.60
2023-01-26T12:22:08.530Z,10.60
2023-01-26T12:25:17.665Z,10.60
2023-01-26T12:27:58.624Z,10.50
2023-01-26T12:30:45.729Z,10.50
2023-01-26T12:33:22.082Z,10.50
2023-01-26T12:36:22.495Z,10.54
2023-01-26T12:39:18.790Z,10.60
2023-01-26T12:42:26.944Z,10.70
2023-01-26T12:45:09.645Z,10.70
2023-01-26T12:47:54.073Z,10.80
2023-01-26T12:50:38.844Z,10.90
2023-01-26T12:53:25.079Z,10.90
2023-01-26T12:56:12.116Z,11.00
2023-01-26T12:58:51.953Z,11.00
2023-01-26T13:01:39.733Z,11.10
2023-01-26T13:04:20.927Z,11.14
2023-01-26T13:07:23.316Z,11.20
2023-01-26T13:10:40.769Z,11.20
2023-01-26T13:13:34.965Z,11.12
2023-01-26T13:16:40.028Z,11.04
2023-01-26T13:19:59.958Z,11.00
2023-01-26T13:22:49.033Z,10.90
2023-01-26T13:25:34.419Z,10.94
2023-01-26T13:28:18.390Z,11.00
2023-01-26T13:31:09.110Z,11.00
2023-01-26T13:33:50.171Z,11.00
2023-01-26T13:36:32.715Z,11.00
2023-01-26T13:39:29.743Z,11.00
2023-01-26T13:42:13.097Z,11.00
2023-01-26T13:44:59.602Z,10.90
2023-01-26T13:47:45.380Z,10.98
2023-01-26T13:50:39.896Z,11.00
2023-01-26T13:53:46.659Z,11.00
2023-01-26T13:56:38.148Z,11.00
2023-01-26T13:59:19.125Z,10.90
2023-01-26T14:01:56.483Z,10.80
2023-01-26T14:04:36.226Z,10.70
2023-01-26T14:07:19.343Z,10.60
2023-01-26T14:10:01.311Z,10.60
2023-01-26T14:12:44.635Z,10.54
2023-01-26T14:15:31.166Z,10.60
2023-01-26T14:18:09.311Z,10.50
2023-01-26T14:20:48.613Z,10.42
2023-01-26T14:23:24.585Z,10.40
2023-01-26T14:26:09.249Z,10.40
2023-01-26T14:28:52.024Z,10.40
2023-01-26T14:31:31.489Z,10.30
2023-01-26T14:34:21.139Z,10.30
2023-01-26T14:37:15.883Z,10.20
2023-01-26T14:40:12.839Z,10.20
2023-01-26T14:42:52.676Z,10.12
2023-01-26T14:45:36.983Z,10.10
2023-01-26T14:48:19.907Z,10.10
2023-01-26T14:50:56.858Z,10.10
2023-01-26T14:53:34.021Z,10.10
2023-01-26T14:56:20.080Z,10.10
2023-01-26T14:59:00.365Z,10.10
2023-01-26T15:01:36.703Z,10.10
2023-01-26T15:04:24.545Z,10.10
2023-01-26T15:07:21.947Z,10.00
2023-01-26T15:10:01.040Z,10.00
2023-01-26T15:12:40.803Z,10.00
2023-01-26T15:15:23.281Z,9.90
2023-01-26T15:18:20.550Z,9.90
2023-01-26T15:21:13.399Z,9.82
2023-01-26T15:23:56.351Z,9.76
2023-01-26T15:26:36.933Z,9.70
2023-01-26T15:29:28.976Z,9.60
2023-01-26T15:32:05.535Z,9.60
2023-01-26T15:34:46.286Z,9.50
2023-01-26T15:37:37.904Z,9.50
2023-01-26T15:40:20.452Z,9.40
2023-01-26T15:43:14.095Z,9.40
2023-01-26T15:45:56.798Z,9.30
2023-01-26T15:48:35.397Z,9.20
2023-01-26T15:51:17.012Z,9.20
2023-01-26T15:53:54.773Z,9.10
2023-01-26T15:56:32.417Z,9.00
2023-01-26T15:59:09.212Z,8.90
2023-01-26T16:01:47.755Z,8.80
2023-01-26T16:04:25.815Z,8.74
2023-01-26T16:07:03.068Z,8.70
2023-01-26T16:09:40.634Z,8.70
2023-01-26T16:12:36.507Z,8.70
2023-01-26T16:15:34.477Z,8.70
2023-01-26T16:18:12.702Z,8.70
2023-01-26T16:20:52.086Z,8.70
2023-01-26T16:23:33.063Z,8.68
2023-01-26T16:26:13.555Z,8.60
2023-01-26T16:28:51.449Z,8.60
2023-01-26T16:31:33.123Z,8.50
2023-01-26T16:34:12.773Z,8.50
2023-01-26T16:36:50.219Z,8.42
2023-01-26T16:39:28.686Z,8.40
2023-01-26T16:42:06.594Z,8.40
2023-01-26T16:44:43.704Z,8.36
2023-01-26T16:47:20.511Z,8.30
2023-01-26T16:49:57.737Z,8.30
2023-01-26T16:52:36.603Z,8.26
2023-01-26T16:55:17.903Z,8.22
2023-01-26T16:57:55.252Z,8.20
2023-01-26T17:00:32.363Z,8.20
2023-01-26T17:03:10.610Z,8.20
2023-01-26T17:05:46.961Z,8.20
2023-01-26T17:08:24.018Z,8.20
2023-01-26T17:11:02.753Z,8.20
2023-01-26T17:13:41.046Z,8.20
2023-01-26T17:16:22.416Z,8.10
2023-01-26T17:18:59.394Z,8.10
2023-01-26T17:21:37.477Z,8.10
2023-01-26T17:24:16.145Z,8.10
2023-01-26T17:26:53.139Z,8.10
2023-01-26T17:29:29.868Z,8.10
2023-01-26T17:32:06.394Z,8.04
2023-01-26T17:34:43.301Z,8.00
2023-01-26T17:37:19.763Z,8.00
2023-01-26T17:39:56.717Z,7.90
2023-01-26T17:42:34.123Z,7.90
2023-01-26T17:45:15.742Z,7.90
2023-01-26T17:47:52.687Z,7.82
2023-01-26T17:50:29.731Z,7.80
2023-01-26T17:53:06.895Z,7.80
2023-01-26T17:55:45.041Z,7.80
2023-01-26T17:58:22.193Z,7.70
2023-01-26T18:01:00.309Z,7.70
2023-01-26T18:03:36.347Z,7.60
2023-01-26T18:06:14.002Z,7.60
2023-01-26T18:08:50.887Z,7.60
2023-01-26T18:11:27.805Z,7.60
2023-01-26T18:14:04.242Z,7.60
2023-01-26T18:16:42.511Z,7.58
2023-01-26T18:19:18.684Z,7.54
2023-01-26T18:21:55.761Z,7.60
2023-01-26T18:24:32.510Z,7.60
2023-01-26T18:27:10.222Z,7.60
2023-01-26T18:29:46.867Z,7.60
2023-01-26T18:32:23.060Z,7.68
2023-01-26T18:35:00.071Z,7.70
2023-01-26T18:37:37.239Z,7.72
2023-01-26T18:40:20.813Z,7.80
2023-01-26T18:43:00.820Z,7.70
2023-01-26T18:45:37.400Z,7.70
2023-01-26T18:48:15.235Z,7.68
2023-01-26T18:50:55.553Z,7.62
2023-01-26T18:53:33.281Z,7.60
2023-01-26T18:56:16.285Z,7.60
2023-01-26T18:58:54.040Z,7.60
2023-01-26T19:01:30.273Z,7.60
2023-01-26T19:04:07.477Z,7.60
2023-01-26T19:06:44.507Z,7.60
2023-01-26T19:09:21.403Z,7.60
2023-01-26T19:11:58.620Z,7.54
2023-01-26T19:14:35.567Z,7.56
2023-01-26T19:17:12.147Z,7.60
2023-01-26T19:19:48.632Z,7.60
2023-01-26T19:22:26.374Z,7.50
2023-01-26T19:25:03.488Z,7.50
2023-01-26T19:27:40.839Z,7.50
2023-01-26T19:30:23.732Z,7.48
2023-01-26T19:33:15.807Z,7.46
2023-01-26T19:35:52.808Z,7.50
2023-01-26T19:38:29.005Z,7.50
2023-01-26T19:41:04.983Z,7.50
2023-01-26T19:43:41.526Z,7.60
2023-01-26T19:46:19.487Z,7.60
2023-01-26T19:48:56.553Z,7.60
2023-01-26T19:51:34.395Z,7.60
2023-01-26T19:54:11.975Z,7.60
2023-01-26T19:56:48.635Z,7.60
2023-01-26T19:59:27.085Z,7.60
2023-01-26T20:02:04.245Z,7.60
2023-01-26T20:04:41.076Z,7.60
2023-01-26T20:07:17.157Z,7.60
2023-01-26T20:09:53.564Z,7.62
2023-01-26T20:12:31.246Z,7.64
2023-01-26T20:15:09.056Z,7.70
2023-01-26T20:17:45.978Z,7.70
2023-01-26T20:20:22.970Z,7.70
2023-01-26T20:22:59.709Z,7.70
2023-01-26T20:25:37.174Z,7.70
2023-01-26T20:28:14.824Z,7.70
2023-01-26T20:30:52.050Z,7.70
2023-01-26T20:33:29.181Z,7.70
2023-01-26T20:36:07.700Z,7.70
2023-01-26T20:38:45.089Z,7.70
2023-01-26T20:41:25.017Z,7.70
2023-01-26T20:44:03.947Z,7.70
2023-01-26T20:46:43.821Z,7.70
2023-01-26T20:49:22.252Z,7.80
2023-01-26T20:51:58.712Z,7.80
2023-01-26T20:54:35.521Z,7.78
2023-01-26T20:57:12.822Z,7.80
2023-01-26T20:59:49.661Z,7.70
2023-01-26T21:02:26.974Z,7.70
2023-01-26T21:05:03.514Z,7.64
2023-01-26T21:07:39.933Z,7.60
2023-01-26T21:10:17.361Z,7.60
2023-01-26T21:12:55.118Z,7.60
2023-01-26T21:15:32.431Z,7.60
2023-01-26T21:18:09.910Z,7.50
2023-01-26T21:20:46.507Z,7.50
2023-01-26T21:23:23.671Z,7.44
2023-01-26T21:26:06.452Z,7.40
2023-01-26T21:28:42.989Z,7.40
2023-01-26T21:31:20.159Z,7.40
2023-01-26T21:33:57.503Z,7.40
2023-01-26T21:36:36.680Z,7.40
2023-01-26T21:39:16.984Z,7.40
2023-01-26T21:41:57.852Z,7.32
2023-01-26T21:44:55.153Z,7.30
2023-01-26T21:47:32.272Z,7.30
2023-01-26T21:50:12.005Z,7.30
2023-01-26T21:53:01.528Z,7.30
2023-01-26T21:55:37.978Z,7.20
2023-01-26T21:58:31.930Z,7.20
2023-01-26T22:01:14.862Z,7.22
2023-01-26T22:03:51.285Z,7.30
2023-01-26T22:06:28.311Z,7.30
2023-01-26T22:09:04.473Z,7.30
2023-01-26T22:11:40.494Z,7.34
2023-01-26T22:14:21.949Z,7.40
2023-01-26T22:16:58.363Z,7.40
2023-01-26T22:19:34.831Z,7.40
2023-01-26T22:22:11.919Z,7.40
2023-01-26T22:24:49.028Z,7.40
2023-01-26T22:27:25.630Z,7.40
2023-01-26T22:30:02.252Z,7.40
2023-01-26T22:32:39.143Z,7.40
2023-01-26T22:35:17.158Z,7.40
2023-01-26T22:37:56.315Z,7.50
2023-01-26T22:40:33.458Z,7.40
2023-01-26T22:43:10.223Z,7.40
2023-01-26T22:45:47.460Z,7.30
2023-01-26T22:48:23.852Z,7.20
2023-01-26T22:51:01.373Z,7.20
2023-01-26T22:53:38.512Z,7.20
2023-01-26T22:56:17.427Z,7.10
2023-01-26T22:58:59.610Z,7.10
2023-01-26T23:01:37.306Z,7.10
2023-01-26T23:04:14.206Z,7.10
2023-01-26T23:06:51.862Z,7.00
2023-01-26T23:09:29.037Z,7.00
2023-01-26T23:12:08.473Z,7.00
2023-01-26T23:14:45.880Z,7.00
2023-01-26T23:17:21.790Z,7.00
2023-01-26T23:19:58.833Z,7.00
2023-01-26T23:22:36.053Z,7.00
2023-01-26T23:25:31.836Z,7.00
2023-01-26T23:28:11.916Z,7.00
2023-01-26T23:30:49.117Z,6.90
2023-01-26T23:33:25.924Z,6.90
2023-01-26T23:36:02.169Z,6.90
2023-01-26T23:38:38.171Z,6.86
2023-01-26T23:41:14.832Z,6.70
2023-01-26T23:43:51.012Z,6.64
2023-01-26T23:46:28.166Z,6.60
2023-01-26T23:49:04.592Z,6.50
2023-01-26T23:51:41.670Z,6.40
2023-01-26T23:54:18.984Z,6.30
2023-01-26T23:56:55.412Z,6.20
2023-01-26T23:59:31.233Z,6.10
